createdAt,value
2022-09-07T00:04:45.483Z,101129.72
2022-09-07T00:10:08.160Z,101103.16
2022-09-07T00:15:30.217Z,101107.56
2022-09-07T00:21:04.745Z,101098.28
2022-09-07T00:26:29.461Z,101103.56
2022-09-07T00:31:51.544Z,101094.97
2022-09-07T00:37:13.569Z,101094.41
2022-09-07T00:42:35.557Z,101095.25
2022-09-07T00:48:07.181Z,101108.19
2022-09-07T00:53:35.641Z,101090.41
2022-09-07T00:58:57.895Z,101098.38
2022-09-07T01:04:21.553Z,101092.28
2022-09-07T01:09:44.391Z,101098.38
2022-09-07T01:15:06.977Z,101099.16
2022-09-07T01:20:55.323Z,101096.69
2022-09-07T01:26:35.915Z,101100.25
2022-09-07T01:32:10.056Z,101088.41
2022-09-07T01:37:56.856Z,101082.50
2022-09-07T01:43:34.271Z,101091.22
2022-09-07T01:49:04.629Z,101097.31
2022-09-07T01:54:29.330Z,101100.88
2022-09-07T02:00:18.602Z,101095.91
2022-09-07T02:05:50.937Z,101089.97
2022-09-07T02:11:20.248Z,101101.00
2022-09-07T02:16:55.349Z,101095.06
2022-09-07T02:22:20.565Z,101079.72
2022-09-07T02:27:49.870Z,101082.31
2022-09-07T02:33:12.037Z,101078.81
2022-09-07T02:38:35.474Z,101079.81
2022-09-07T02:43:58.177Z,101072.94
2022-09-07T02:49:32.167Z,101069.56
2022-09-07T02:55:14.667Z,101070.41
2022-09-07T03:01:00.469Z,101063.56
2022-09-07T03:06:36.939Z,101057.66
2022-09-07T03:12:03.070Z,101067.97
2022-09-07T03:17:24.952Z,101073.13
2022-09-07T03:22:48.335Z,101058.59
2022-09-07T03:28:10.487Z,101061.19
2022-09-07T03:33:32.312Z,101063.75
2022-09-07T03:38:55.155Z,101054.41
2022-09-07T03:44:17.052Z,101068.97
2022-09-07T03:49:38.961Z,101057.00
2022-09-07T03:55:00.840Z,101063.94
2022-09-07T04:00:22.693Z,101065.56
2022-09-07T04:05:44.588Z,101064.72
2022-09-07T04:11:08.861Z,101046.72
2022-09-07T04:16:30.744Z,101067.06
2022-09-07T04:21:52.826Z,101066.81
2022-09-07T04:27:14.677Z,101066.50
2022-09-07T04:32:36.542Z,101047.25
2022-09-07T04:37:58.344Z,101042.84
2022-09-07T04:43:20.182Z,101044.84
2022-09-07T04:48:42.128Z,101041.69
2022-09-07T04:54:04.498Z,101038.94
2022-09-07T04:59:26.379Z,101044.91
2022-09-07T05:04:48.322Z,101038.06
2022-09-07T05:10:10.217Z,101041.41
2022-09-07T05:15:32.362Z,101043.81
2022-09-07T05:20:54.212Z,101056.38
2022-09-07T05:26:16.494Z,101052.59
2022-09-07T05:31:38.446Z,101066.63
2022-09-07T05:37:01.638Z,101052.81
2022-09-07T05:42:23.622Z,101057.34
2022-09-07T05:47:48.887Z,101056.19
2022-09-07T05:53:10.748Z,101049.75
2022-09-07T05:58:33.743Z,101041.13
2022-09-07T06:03:55.618Z,101047.69
2022-09-07T06:09:17.445Z,101048.56
2022-09-07T06:14:39.283Z,101036.25
2022-09-07T06:20:01.246Z,101032.75
2022-09-07T06:25:23.072Z,101036.19
2022-09-07T06:30:44.920Z,101027.47
2022-09-07T06:36:11.008Z,101013.88
2022-09-07T06:47:14.766Z,101008.44
2022-09-07T06:58:19.103Z,101003.16
2022-09-07T07:03:42.005Z,101004.13
2022-09-07T07:09:05.683Z,101002.75
2022-09-07T07:14:29.020Z,101003.47
2022-09-07T07:19:52.843Z,101009.53
2022-09-07T07:25:14.826Z,101010.59
2022-09-07T07:30:36.655Z,101028.16
2022-09-07T07:36:17.118Z,101043.53
2022-09-07T07:41:56.240Z,101042.91
2022-09-07T07:47:21.285Z,101038.66
2022-09-07T07:52:50.739Z,101035.19
2022-09-07T07:58:25.546Z,101025.56
2022-09-07T08:03:47.333Z,101023.00
2022-09-07T08:09:09.148Z,101016.09
2022-09-07T08:14:30.934Z,101018.44
2022-09-07T08:19:52.731Z,101005.50
2022-09-07T08:25:14.556Z,101005.16
2022-09-07T08:30:39.398Z,101007.22
2022-09-07T08:36:03.594Z,100981.72
2022-09-07T08:41:34.167Z,100992.69
2022-09-07T08:46:58.259Z,100988.19
2022-09-07T08:52:25.463Z,100981.56
2022-09-07T08:57:55.424Z,100981.97
2022-09-07T09:06:11.624Z,100973.22
2022-09-07T09:09:15.974Z,100971.09
2022-09-07T09:14:37.680Z,100963.22
2022-09-07T09:20:31.039Z,100961.47
2022-09-07T09:25:55.535Z,100938.16
2022-09-07T09:31:23.519Z,100932.50
2022-09-07T09:36:53.773Z,100934.19
2022-09-07T09:42:22.294Z,100921.69
2022-09-07T09:47:49.685Z,100939.56
2022-09-07T09:53:24.964Z,100931.94
2022-09-07T10:04:33.893Z,100919.28
2022-09-07T10:09:56.974Z,100910.09
2022-09-07T10:15:30.553Z,100900.81
2022-09-07T10:20:52.404Z,100908.34
2022-09-07T10:26:27.428Z,100912.63
2022-09-07T10:31:55.339Z,100909.50
2022-09-07T10:37:48.177Z,100899.44
2022-09-07T10:43:22.296Z,100884.22
2022-09-07T10:49:04.322Z,100878.56
2022-09-07T10:54:36.860Z,100883.34
2022-09-07T11:00:09.899Z,100876.97
2022-09-07T11:05:50.613Z,100876.59
2022-09-07T11:12:00.693Z,100885.72
2022-09-07T11:17:40.914Z,100888.00
2022-09-07T11:23:14.207Z,100880.25
2022-09-07T11:34:46.232Z,100868.28
2022-09-07T11:40:26.762Z,100861.91
2022-09-07T11:45:55.374Z,100849.56
2022-09-07T11:51:26.709Z,100855.13
2022-09-07T11:56:57.767Z,100835.75
2022-09-07T12:03:00.766Z,100826.19
2022-09-07T12:09:02.574Z,100828.03
2022-09-07T12:14:43.199Z,100824.38
2022-09-07T12:20:11.819Z,100816.34
2022-09-07T12:25:34.829Z,100825.19
2022-09-07T12:31:00.075Z,100821.00
2022-09-07T12:36:27.953Z,100813.16
2022-09-07T12:47:58.763Z,100801.53
2022-09-07T12:53:57.859Z,100806.31
2022-09-07T12:59:29.440Z,100793.16
2022-09-07T13:05:13.045Z,100781.63
2022-09-07T13:10:44.631Z,100787.41
2022-09-07T13:16:06.407Z,100781.72
2022-09-07T13:21:32.202Z,100777.75
2022-09-07T13:27:24.346Z,100767.34
2022-09-07T13:38:30.811Z,100747.34
2022-09-07T13:43:58.523Z,100743.84
2022-09-07T13:49:32.403Z,100747.78
2022-09-07T13:55:21.599Z,100742.53
2022-09-07T14:01:01.239Z,100755.94
2022-09-07T14:06:23.029Z,100749.88
2022-09-07T14:11:50.983Z,100734.81
2022-09-07T14:17:16.110Z,100750.13
2022-09-07T14:22:39.838Z,100716.81
2022-09-07T14:28:01.785Z,100731.16
2022-09-07T14:33:23.819Z,100726.16
2022-09-07T14:44:40.903Z,100721.59
2022-09-07T14:50:03.725Z,100702.41
2022-09-07T14:55:35.410Z,100699.34
2022-09-07T15:07:04.034Z,100683.94
2022-09-07T15:12:38.226Z,100697.88
2022-09-07T15:18:08.482Z,100683.38
2022-09-07T15:23:30.436Z,100677.72
2022-09-07T15:34:34.697Z,100684.06
2022-09-07T15:39:56.655Z,100687.44
2022-09-07T15:45:18.496Z,100687.00
2022-09-07T15:50:42.054Z,100698.34
2022-09-07T15:56:03.929Z,100696.00
2022-09-07T16:07:07.479Z,100690.38
2022-09-07T16:18:16.811Z,100673.56
2022-09-07T16:23:44.772Z,100675.50
2022-09-07T16:29:06.562Z,100679.03
2022-09-07T16:34:28.868Z,100669.09
2022-09-07T16:39:50.810Z,100676.13
2022-09-07T16:51:01.073Z,100668.06
2022-09-07T16:56:26.847Z,100667.59
2022-09-07T17:01:48.868Z,100689.75
2022-09-07T17:07:12.398Z,100679.31
2022-09-07T17:12:34.405Z,100676.72
2022-09-07T17:17:56.205Z,100674.28
2022-09-07T17:23:18.008Z,100674.97
2022-09-07T17:28:43.974Z,100682.03
2022-09-07T17:34:05.940Z,100682.13
2022-09-07T17:39:28.052Z,100692.75
2022-09-07T17:44:54.061Z,100697.25
2022-09-07T17:50:15.892Z,100705.16
2022-09-07T17:55:37.735Z,100708.78
2022-09-07T18:01:05.310Z,100716.50
2022-09-07T18:06:27.308Z,100709.31
2022-09-07T18:11:50.035Z,100707.97
2022-09-07T18:17:12.090Z,100712.63
2022-09-07T18:22:34.701Z,100709.06
2022-09-07T18:33:39.560Z,100711.00
2022-09-07T18:39:02.377Z,100708.09
2022-09-07T18:50:07.136Z,100706.84
2022-09-07T18:55:28.964Z,100711.38
2022-09-07T19:00:50.996Z,100703.13
2022-09-07T19:06:14.109Z,100714.28
2022-09-07T19:11:35.945Z,100712.03
2022-09-07T19:16:57.865Z,100704.56
2022-09-07T19:22:19.741Z,100696.22
2022-09-07T19:27:41.528Z,100699.91
2022-09-07T19:33:04.676Z,100690.28
2022-09-07T19:38:26.688Z,100698.41
2022-09-07T19:43:49.129Z,100697.69
2022-09-07T19:49:11.427Z,100707.84
2022-09-07T19:54:33.326Z,100709.72
2022-09-07T19:59:55.190Z,100713.78
2022-09-07T20:05:18.182Z,100704.34
2022-09-07T20:10:40.092Z,100720.13
2022-09-07T20:16:07.479Z,100713.34
2022-09-07T20:21:29.427Z,100708.56
2022-09-07T20:26:51.408Z,100709.34
2022-09-07T20:32:13.225Z,100720.97
2022-09-07T20:37:35.083Z,100715.31
2022-09-07T20:42:56.874Z,100712.25
2022-09-07T20:48:18.659Z,100712.88
2022-09-07T20:53:41.153Z,100708.59
2022-09-07T20:59:03.987Z,100713.91
2022-09-07T21:04:25.847Z,100700.59
2022-09-07T21:09:47.973Z,100708.72
2022-09-07T21:15:10.106Z,100713.97
2022-09-07T21:20:32.374Z,100723.00
2022-09-07T21:25:54.290Z,100713.63
2022-09-07T21:31:16.158Z,100724.56
2022-09-07T21:36:38.027Z,100718.72
2022-09-07T21:41:59.781Z,100714.31
2022-09-07T21:47:21.591Z,100720.00
2022-09-07T21:52:43.342Z,100724.03
2022-09-07T21:58:05.543Z,100735.56
2022-09-07T22:03:27.386Z,100732.41
2022-09-07T22:08:49.847Z,100726.38
2022-09-07T22:14:13.100Z,100717.88
2022-09-07T22:19:34.873Z,100712.97
2022-09-07T22:24:56.685Z,100702.19
2022-09-07T22:30:18.529Z,100703.09
2022-09-07T22:35:40.287Z,100703.41
2022-09-07T22:41:12.957Z,100702.84
2022-09-07T22:46:37.312Z,100695.03
2022-09-07T22:51:59.147Z,100702.47
2022-09-07T22:57:20.920Z,100690.63
2022-09-07T23:02:42.824Z,100694.47
2022-09-07T23:08:04.776Z,100701.44
2022-09-07T23:13:26.650Z,100705.06
2022-09-07T23:18:48.784Z,100693.28
2022-09-07T23:24:16.774Z,100713.03
2022-09-07T23:29:38.563Z,100710.81
2022-09-07T23:35:00.303Z,100701.31
2022-09-07T23:40:22.195Z,100695.72
2022-09-07T23:45:43.955Z,100689.00
2022-09-07T23:51:06.124Z,100675.03
2022-09-07T23:56:27.956Z,100686.13
